Time;durP1;ratioP1;P1;durP2;ratioP2;P2;SDS_P1;SDS_P2;PMS_P1;PMS_P2;Temp;Humidity;BMP_temperature;BMP_pressure;BME280_temperature;BME280_humidity;BME280_pressure;Samples;Min_cycle;Max_cycle;Signal;HPM_P1;HPM_P2
2023/04/08 00:00:56;;;;;;;12.15;6.25;;;;;;;;;;5013284;28;20036;-73
2023/04/08 00:03:42;;;;;;;10.60;6.88;;;;;;;;;;5022984;28;20408;-75
2023/04/08 00:06:27;;;;;;;11.43;7.38;;;;;;;;;;5012921;28;20092;-75
2023/04/08 00:09:12;;;;;;;12.45;7.10;;;;;;;;;;5021598;28;20655;-75
2023/04/08 00:11:57;;;;;;;12.55;7.50;;;;;;;;;;5013394;28;20026;-73
2023/04/08 00:14:43;;;;;;;12.98;8.18;;;;;;;;;;5026164;28;20041;-76
2023/04/08 00:17:28;;;;;;;12.77;7.97;;;;;;;;;;5012849;28;20087;-75
2023/04/08 00:20:13;;;;;;;11.55;7.95;;;;;;;;;;5024032;28;20227;-78
2023/04/08 00:22:58;;;;;;;12.40;8.10;;;;;;;;;;5025080;28;20045;-76
2023/04/08 00:25:44;;;;;;;13.77;8.73;;;;;;;;;;5010044;28;20167;-77
2023/04/08 00:28:29;;;;;;;12.30;8.32;;;;;;;;;;5024035;28;20037;-71
2023/04/08 00:31:15;;;;;;;11.23;7.88;;;;;;;;;;5012812;28;20017;-73
2023/04/08 00:34:00;;;;;;;12.55;7.63;;;;;;;;;;5040731;28;20377;-73
2023/04/08 00:36:46;;;;;;;11.82;7.85;;;;;;;;;;5010992;28;20026;-73
2023/04/08 00:39:31;;;;;;;11.80;7.65;;;;;;;;;;5026667;28;20034;-73
2023/04/08 00:42:17;;;;;;;11.50;7.95;;;;;;;;;;5023144;28;20029;-72
2023/04/08 00:45:02;;;;;;;13.55;8.45;;;;;;;;;;5026548;28;20400;-72
2023/04/08 00:47:51;;;;;;;13.13;7.97;;;;;;;;;;5030971;28;20104;-77
2023/04/08 00:50:36;;;;;;;10.55;7.57;;;;;;;;;;5016347;28;20047;-77
2023/04/08 00:53:21;;;;;;;11.27;8.00;;;;;;;;;;5014132;28;20045;-78
2023/04/08 00:56:06;;;;;;;10.57;7.38;;;;;;;;;;5014902;28;20084;-77
2023/04/08 00:58:54;;;;;;;12.52;7.15;;;;;;;;;;5029385;28;20415;-77
2023/04/08 01:01:46;;;;;;;13.05;7.45;;;;;;;;;;5029240;28;20025;-77
2023/04/08 01:04:50;;;;;;;12.95;7.72;;;;;;;;;;5029698;28;20033;-76
2023/04/08 01:07:46;;;;;;;10.68;7.63;;;;;;;;;;5012022;28;20121;-73
2023/04/08 01:10:32;;;;;;;11.65;7.43;;;;;;;;;;5029715;28;20052;-73
2023/04/08 01:13:20;;;;;;;12.63;8.23;;;;;;;;;;5036315;28;20025;-75
2023/04/08 01:16:08;;;;;;;11.27;7.32;;;;;;;;;;5029347;28;20029;-70
2023/04/08 01:18:54;;;;;;;12.77;8.13;;;;;;;;;;5030017;28;20048;-74
2023/04/08 01:21:39;;;;;;;12.02;7.55;;;;;;;;;;5039083;28;20057;-74
2023/04/08 01:24:27;;;;;;;12.43;8.70;;;;;;;;;;5026876;28;20072;-74
2023/04/08 01:27:13;;;;;;;12.73;7.65;;;;;;;;;;5030317;28;20040;-73
2023/04/08 01:29:59;;;;;;;14.35;9.15;;;;;;;;;;5016122;28;20032;-74
2023/04/08 01:32:45;;;;;;;11.05;7.68;;;;;;;;;;5029758;28;20094;-74
2023/04/08 01:35:31;;;;;;;11.23;8.05;;;;;;;;;;5029860;28;20033;-74
2023/04/08 01:38:18;;;;;;;11.65;7.95;;;;;;;;;;5015285;28;20036;-73
2023/04/08 01:41:04;;;;;;;12.02;7.90;;;;;;;;;;5035822;28;20040;-80
2023/04/08 01:43:50;;;;;;;11.48;7.43;;;;;;;;;;5026093;28;20067;-77
2023/04/08 01:46:36;;;;;;;12.30;7.68;;;;;;;;;;5040940;28;20032;-70
2023/04/08 01:49:22;;;;;;;10.98;7.90;;;;;;;;;;5022552;28;20029;-71
2023/04/08 01:52:08;;;;;;;12.82;7.93;;;;;;;;;;5014842;28;20510;-69
2023/04/08 01:54:53;;;;;;;13.23;7.32;;;;;;;;;;5014422;28;20034;-70
2023/04/08 01:57:40;;;;;;;14.30;8.73;;;;;;;;;;5023089;28;20082;-70
2023/04/08 02:00:28;;;;;;;10.70;7.55;;;;;;;;;;5029579;28;20022;-74
2023/04/08 02:03:16;;;;;;;14.43;8.80;;;;;;;;;;5015719;28;20033;-77
2023/04/08 02:06:01;;;;;;;12.48;7.90;;;;;;;;;;5011542;28;20056;-76
2023/04/08 02:08:46;;;;;;;12.80;8.13;;;;;;;;;;5014770;28;20037;-76
2023/04/08 02:11:31;;;;;;;11.85;8.00;;;;;;;;;;5014119;28;20366;-77
2023/04/08 02:14:17;;;;;;;14.00;9.27;;;;;;;;;;5029035;28;20025;-78
2023/04/08 02:17:08;;;;;;;11.80;8.20;;;;;;;;;;5010079;28;20041;-77
2023/04/08 02:20:03;;;;;;;12.23;8.13;;;;;;;;;;5029449;28;20026;-69
2023/04/08 02:23:07;;;;;;;14.35;8.80;;;;;;;;;;5028852;28;20069;-74
2023/04/08 02:25:54;;;;;;;12.77;8.65;;;;;;;;;;5011676;28;20464;-76
2023/04/08 02:28:40;;;;;;;10.70;7.22;;;;;;;;;;5028960;28;20776;-74
2023/04/08 02:31:26;;;;;;;14.38;9.65;;;;;;;;;;5007151;28;20014;-75
2023/04/08 02:34:12;;;;;;;13.70;8.88;;;;;;;;;;5028258;28;20033;-74
2023/04/08 02:36:58;;;;;;;13.25;8.82;;;;;;;;;;5004272;28;20037;-70
2023/04/08 02:39:43;;;;;;;14.65;9.27;;;;;;;;;;5014523;28;20118;-78
2023/04/08 02:42:28;;;;;;;16.20;10.18;;;;;;;;;;5013709;28;20580;-77
2023/04/08 02:45:13;;;;;;;12.77;8.40;;;;;;;;;;5013815;28;20040;-76
2023/04/08 02:48:00;;;;;;;13.88;9.25;;;;;;;;;;5010699;28;20424;-75
2023/04/08 02:50:45;;;;;;;12.50;8.10;;;;;;;;;;5001084;28;20033;-78
2023/04/08 02:53:30;;;;;;;15.35;9.65;;;;;;;;;;5041000;28;20040;-77
2023/04/08 02:56:16;;;;;;;15.45;9.13;;;;;;;;;;5027883;28;20053;-72
2023/04/08 02:59:01;;;;;;;16.17;9.75;;;;;;;;;;5016750;28;20098;-76
2023/04/08 03:01:46;;;;;;;19.35;10.18;;;;;;;;;;5010114;28;20585;-75
2023/04/08 03:04:31;;;;;;;14.57;9.48;;;;;;;;;;5026790;28;20033;-76
2023/04/08 03:07:16;;;;;;;18.38;10.10;;;;;;;;;;5025257;28;20516;-74
2023/04/08 03:10:02;;;;;;;13.73;9.75;;;;;;;;;;5014894;28;20029;-76
2023/04/08 03:12:47;;;;;;;17.00;9.05;;;;;;;;;;5015809;28;20553;-74
2023/04/08 03:15:32;;;;;;;15.43;9.70;;;;;;;;;;5041883;28;20033;-74
2023/04/08 03:18:18;;;;;;;14.65;9.32;;;;;;;;;;5022536;28;20029;-75
2023/04/08 03:21:03;;;;;;;15.20;9.38;;;;;;;;;;5013464;28;20512;-77
2023/04/08 03:23:48;;;;;;;15.63;8.95;;;;;;;;;;5013215;28;20036;-77
2023/04/08 03:26:34;;;;;;;13.55;7.75;;;;;;;;;;5012834;28;20086;-75
2023/04/08 03:29:19;;;;;;;14.38;8.43;;;;;;;;;;5026375;28;20056;-77
2023/04/08 03:32:04;;;;;;;14.00;8.25;;;;;;;;;;5026305;28;20017;-73
2023/04/08 03:34:50;;;;;;;17.02;8.05;;;;;;;;;;5007604;28;20025;-69
2023/04/08 03:37:35;;;;;;;13.50;7.47;;;;;;;;;;5027735;28;20025;-71
2023/04/08 03:40:20;;;;;;;11.25;6.82;;;;;;;;;;5027655;28;20589;-70
2023/04/08 03:43:07;;;;;;;14.20;7.97;;;;;;;;;;5027148;28;20186;-71
2023/04/08 03:45:52;;;;;;;13.35;8.20;;;;;;;;;;5027693;28;20033;-70
2023/04/08 03:48:38;;;;;;;14.43;7.32;;;;;;;;;;5012231;28;20021;-70
2023/04/08 03:51:23;;;;;;;12.82;6.97;;;;;;;;;;5000307;28;20026;-74
2023/04/08 03:54:08;;;;;;;10.13;6.10;;;;;;;;;;5009012;28;20036;-71
2023/04/08 03:56:54;;;;;;;13.98;7.22;;;;;;;;;;5027117;28;20508;-70
2023/04/08 03:59:40;;;;;;;11.60;6.80;;;;;;;;;;5013587;28;20127;-71
2023/04/08 04:02:25;;;;;;;15.18;7.75;;;;;;;;;;5027102;28;20025;-69
2023/04/08 04:05:10;;;;;;;10.70;6.53;;;;;;;;;;5027417;28;20052;-72
2023/04/08 04:07:57;;;;;;;13.32;6.30;;;;;;;;;;5024800;28;20045;-71
2023/04/08 04:10:42;;;;;;;8.98;5.60;;;;;;;;;;5027094;28;20026;-73
2023/04/08 04:13:27;;;;;;;10.93;6.25;;;;;;;;;;5025909;28;20032;-78
2023/04/08 04:16:12;;;;;;;9.73;6.18;;;;;;;;;;5020156;28;20527;-75
2023/04/08 04:18:58;;;;;;;10.18;6.28;;;;;;;;;;5011837;28;20033;-75
2023/04/08 04:21:43;;;;;;;10.10;6.07;;;;;;;;;;5010972;28;20030;-76
2023/04/08 04:24:28;;;;;;;13.32;7.72;;;;;;;;;;5012089;28;20026;-76
2023/04/08 04:27:14;;;;;;;12.18;6.93;;;;;;;;;;5023326;28;20188;-76
2023/04/08 04:29:59;;;;;;;14.25;8.30;;;;;;;;;;5026740;28;20031;-79
2023/04/08 04:32:45;;;;;;;12.43;7.63;;;;;;;;;;5040996;28;20036;-80
2023/04/08 04:35:30;;;;;;;14.77;8.30;;;;;;;;;;5026767;28;20040;-80
2023/04/08 04:38:16;;;;;;;11.73;7.22;;;;;;;;;;5027109;28;20033;-80
2023/04/08 04:41:01;;;;;;;13.15;8.23;;;;;;;;;;5019944;28;20073;-79
2023/04/08 04:43:46;;;;;;;15.57;8.77;;;;;;;;;;5008597;28;20056;-80
2023/04/08 04:46:31;;;;;;;16.90;9.80;;;;;;;;;;5027106;28;20033;-71
2023/04/08 04:49:17;;;;;;;16.55;9.55;;;;;;;;;;5011002;28;20029;-79
2023/04/08 04:52:02;;;;;;;14.60;9.25;;;;;;;;;;5012009;28;20069;-79
2023/04/08 04:54:47;;;;;;;16.92;9.82;;;;;;;;;;5027391;28;20025;-81
2023/04/08 04:57:33;;;;;;;16.48;9.85;;;;;;;;;;5026368;28;20472;-80
2023/04/08 05:00:18;;;;;;;14.75;8.68;;;;;;;;;;5027085;28;20026;-80
2023/04/08 05:03:03;;;;;;;14.27;9.43;;;;;;;;;;5026754;28;20045;-81
2023/04/08 05:05:52;;;;;;;14.50;9.75;;;;;;;;;;5012210;28;20025;-76
2023/04/08 05:08:37;;;;;;;15.30;9.43;;;;;;;;;;5034618;28;20694;-72
2023/04/08 05:11:23;;;;;;;14.88;9.98;;;;;;;;;;5009295;28;20073;-74
2023/04/08 05:14:08;;;;;;;14.15;8.98;;;;;;;;;;5026839;28;20061;-74
2023/04/08 05:16:53;;;;;;;14.10;9.82;;;;;;;;;;5026297;28;20425;-74
2023/04/08 05:19:38;;;;;;;16.65;9.20;;;;;;;;;;5026504;28;20112;-74
2023/04/08 05:22:23;;;;;;;17.25;10.02;;;;;;;;;;5026659;28;20148;-81
2023/04/08 05:25:09;;;;;;;14.05;9.60;;;;;;;;;;5023368;28;20564;-77
2023/04/08 05:27:54;;;;;;;14.45;8.60;;;;;;;;;;5026588;28;20025;-77
2023/04/08 05:30:40;;;;;;;13.63;8.93;;;;;;;;;;5013050;28;20573;-77
2023/04/08 05:33:26;;;;;;;14.93;8.77;;;;;;;;;;5014632;28;20380;-77
2023/04/08 05:36:11;;;;;;;20.10;9.45;;;;;;;;;;5016503;28;20037;-77
2023/04/08 05:38:56;;;;;;;13.82;8.77;;;;;;;;;;5011245;28;20029;-76
2023/04/08 05:41:41;;;;;;;14.07;8.50;;;;;;;;;;5014575;28;20420;-69
2023/04/08 05:44:27;;;;;;;11.38;7.50;;;;;;;;;;5030098;28;20021;-73
2023/04/08 05:47:13;;;;;;;12.98;8.00;;;;;;;;;;5014365;28;20636;-73
2023/04/08 05:49:58;;;;;;;13.38;8.05;;;;;;;;;;5015802;28;20107;-74
2023/04/08 05:52:44;;;;;;;15.30;8.77;;;;;;;;;;5016041;28;20025;-73
2023/04/08 05:55:29;;;;;;;13.32;8.70;;;;;;;;;;5013916;28;20028;-73
2023/04/08 05:58:14;;;;;;;14.82;9.23;;;;;;;;;;5015858;28;20682;-71
2023/04/08 06:01:00;;;;;;;12.88;8.15;;;;;;;;;;5038218;28;20396;-71
2023/04/08 06:03:45;;;;;;;13.55;8.25;;;;;;;;;;5029718;28;20038;-69
2023/04/08 06:06:30;;;;;;;15.00;9.57;;;;;;;;;;5029390;28;20435;-69
2023/04/08 06:09:16;;;;;;;13.93;8.63;;;;;;;;;;5026294;28;20083;-69
2023/04/08 06:12:01;;;;;;;15.07;9.65;;;;;;;;;;5027187;28;20539;-71
2023/04/08 06:14:46;;;;;;;16.08;9.80;;;;;;;;;;5019323;28;20025;-69
2023/04/08 06:17:32;;;;;;;15.32;10.48;;;;;;;;;;5015839;28;20025;-72
2023/04/08 06:20:17;;;;;;;13.52;9.98;;;;;;;;;;5028564;28;20025;-72
2023/04/08 06:23:02;;;;;;;21.15;11.05;;;;;;;;;;5007548;28;20038;-75
2023/04/08 06:25:47;;;;;;;15.77;10.13;;;;;;;;;;5014538;28;20079;-74
2023/04/08 06:28:32;;;;;;;17.92;10.48;;;;;;;;;;5015419;28;20369;-73
2023/04/08 06:31:18;;;;;;;15.75;10.43;;;;;;;;;;5014829;28;20036;-74
2023/04/08 06:34:03;;;;;;;16.17;10.50;;;;;;;;;;5027984;28;20036;-74
2023/04/08 06:36:49;;;;;;;15.73;9.75;;;;;;;;;;5015044;28;20029;-75
2023/04/08 06:39:34;;;;;;;16.98;10.55;;;;;;;;;;5015931;28;20514;-80
2023/04/08 06:42:19;;;;;;;21.05;11.00;;;;;;;;;;5029648;28;20117;-81
2023/04/08 06:45:05;;;;;;;14.55;9.95;;;;;;;;;;5025962;28;20035;-81
2023/04/08 06:47:50;;;;;;;17.98;10.43;;;;;;;;;;5015181;28;20029;-83
2023/04/08 06:50:35;;;;;;;16.90;9.82;;;;;;;;;;5028176;28;20029;-81
2023/04/08 06:53:22;;;;;;;17.35;11.23;;;;;;;;;;5014913;28;20025;-81
2023/04/08 06:56:07;;;;;;;27.60;11.75;;;;;;;;;;5028280;28;20060;-75
2023/04/08 06:58:52;;;;;;;15.57;9.38;;;;;;;;;;5028464;28;20098;-72
2023/04/08 07:01:37;;;;;;;15.00;9.65;;;;;;;;;;5025880;28;20409;-72
2023/04/08 07:04:23;;;;;;;13.20;8.63;;;;;;;;;;5028538;28;20067;-73
2023/04/08 07:07:08;;;;;;;12.82;9.00;;;;;;;;;;5028086;28;20703;-72
2023/04/08 07:09:53;;;;;;;14.05;9.60;;;;;;;;;;5028416;28;20060;-73
2023/04/08 07:12:38;;;;;;;16.63;10.80;;;;;;;;;;5028356;28;20029;-82
2023/04/08 07:15:24;;;;;;;13.57;8.75;;;;;;;;;;5041239;28;20033;-71
2023/04/08 07:18:09;;;;;;;14.52;9.32;;;;;;;;;;5019284;28;20057;-73
2023/04/08 07:20:55;;;;;;;13.25;9.20;;;;;;;;;;5027503;28;20036;-73
2023/04/08 07:23:40;;;;;;;17.58;9.32;;;;;;;;;;5027335;28;20041;-74
2023/04/08 07:26:27;;;;;;;15.45;9.73;;;;;;;;;;5027377;28;20025;-74
2023/04/08 07:29:12;;;;;;;17.90;11.68;;;;;;;;;;5027911;28;20048;-75
2023/04/08 07:31:57;;;;;;;17.65;11.35;;;;;;;;;;5026381;28;20576;-73
2023/04/08 07:34:42;;;;;;;15.25;10.52;;;;;;;;;;5026895;28;20029;-76
2023/04/08 07:37:28;;;;;;;19.17;10.35;;;;;;;;;;5014314;28;20025;-75
2023/04/08 07:40:13;;;;;;;14.70;9.23;;;;;;;;;;5041177;28;20112;-76
2023/04/08 07:42:58;;;;;;;13.13;9.00;;;;;;;;;;5013910;28;20026;-75
2023/04/08 07:45:44;;;;;;;13.30;9.57;;;;;;;;;;5012330;28;20025;-76
2023/04/08 07:48:30;;;;;;;13.48;8.40;;;;;;;;;;5013948;28;20029;-76
2023/04/08 07:51:15;;;;;;;15.82;9.65;;;;;;;;;;5012376;28;20068;-74
2023/04/08 07:54:00;;;;;;;13.95;8.68;;;;;;;;;;5024757;28;20029;-83
2023/04/08 07:56:46;;;;;;;12.85;8.30;;;;;;;;;;5026203;28;20041;-81
2023/04/08 07:59:31;;;;;;;12.50;8.23;;;;;;;;;;5027861;28;20464;-81
2023/04/08 08:02:16;;;;;;;13.70;8.93;;;;;;;;;;5027359;28;20059;-81
2023/04/08 08:05:02;;;;;;;13.68;9.30;;;;;;;;;;5026213;28;20560;-82
2023/04/08 08:07:49;;;;;;;12.88;8.63;;;;;;;;;;5035296;28;20077;-76
2023/04/08 08:10:34;;;;;;;14.10;8.57;;;;;;;;;;5013383;28;20112;-75
2023/04/08 08:13:20;;;;;;;12.43;8.80;;;;;;;;;;5013718;28;20017;-75
2023/04/08 08:16:07;;;;;;;12.40;8.65;;;;;;;;;;5020879;28;20045;-73
2023/04/08 08:18:52;;;;;;;13.60;9.00;;;;;;;;;;5013180;28;20052;-75
2023/04/08 08:21:41;;;;;;;14.57;8.00;;;;;;;;;;5013472;28;20030;-74
2023/04/08 08:24:26;;;;;;;13.20;7.95;;;;;;;;;;5026352;28;20256;-74
2023/04/08 08:27:11;;;;;;;14.20;9.25;;;;;;;;;;5027202;28;20040;-71
2023/04/08 08:29:57;;;;;;;13.10;8.05;;;;;;;;;;5037898;28;20033;-73
2023/04/08 08:32:42;;;;;;;12.98;9.35;;;;;;;;;;5026953;28;20839;-75
2023/04/08 08:35:27;;;;;;;11.95;8.80;;;;;;;;;;5013095;28;20476;-74
2023/04/08 08:38:13;;;;;;;13.73;8.57;;;;;;;;;;5013094;28;20047;-73
2023/04/08 08:40:59;;;;;;;11.77;7.93;;;;;;;;;;5011464;28;20091;-73
2023/04/08 08:43:44;;;;;;;13.55;8.82;;;;;;;;;;5016613;28;20123;-75
2023/04/08 08:46:29;;;;;;;14.00;8.55;;;;;;;;;;5013284;28;20034;-74
2023/04/08 08:49:15;;;;;;;15.70;9.52;;;;;;;;;;5012294;28;20495;-69
2023/04/08 08:52:00;;;;;;;11.50;8.50;;;;;;;;;;5025337;28;20499;-70
2023/04/08 08:54:46;;;;;;;14.65;9.20;;;;;;;;;;5026659;28;20102;-69
2023/04/08 08:57:31;;;;;;;15.88;9.25;;;;;;;;;;5034811;28;20427;-70
2023/04/08 09:00:17;;;;;;;12.48;9.43;;;;;;;;;;5040709;28;20109;-70
2023/04/08 09:03:28;;;;;;;12.98;8.88;;;;;;;;;;5026738;28;20037;-73
2023/04/08 09:06:17;;;;;;;12.93;8.60;;;;;;;;;;5019017;28;20042;-75
2023/04/08 09:09:04;;;;;;;13.23;8.93;;;;;;;;;;5030341;28;20183;-76
2023/04/08 09:12:02;;;;;;;12.50;8.57;;;;;;;;;;5043467;28;20444;-78
2023/04/08 09:14:47;;;;;;;15.30;8.65;;;;;;;;;;5027596;28;20024;-77
2023/04/08 09:17:37;;;;;;;12.75;9.50;;;;;;;;;;5043016;28;20116;-77
2023/04/08 09:20:22;;;;;;;13.15;8.93;;;;;;;;;;5030255;28;20508;-76
2023/04/08 09:23:08;;;;;;;13.85;9.13;;;;;;;;;;5029150;28;20560;-71
2023/04/08 09:26:00;;;;;;;12.85;8.68;;;;;;;;;;5030331;28;20095;-69
2023/04/08 09:29:01;;;;;;;13.00;9.10;;;;;;;;;;5027892;28;20033;-72
2023/04/08 09:31:52;;;;;;;13.18;8.93;;;;;;;;;;5024595;28;20517;-71
2023/04/08 09:34:37;;;;;;;13.10;9.52;;;;;;;;;;5029998;28;20068;-71
2023/04/08 09:37:22;;;;;;;13.32;9.40;;;;;;;;;;5020102;28;20021;-71
2023/04/08 09:40:07;;;;;;;12.43;8.82;;;;;;;;;;5029669;28;20487;-72
2023/04/08 09:42:53;;;;;;;12.93;9.13;;;;;;;;;;5024226;28;20037;-75
2023/04/08 09:45:41;;;;;;;11.88;8.68;;;;;;;;;;5006323;28;20412;-76
2023/04/08 09:48:30;;;;;;;13.07;9.45;;;;;;;;;;5029644;28;20059;-75
2023/04/08 09:51:18;;;;;;;14.20;9.38;;;;;;;;;;5020130;28;20438;-74
2023/04/08 09:54:09;;;;;;;12.60;8.85;;;;;;;;;;5013622;28;20112;-76
2023/04/08 09:57:04;;;;;;;13.27;9.80;;;;;;;;;;5013616;28;20087;-76
2023/04/08 09:59:52;;;;;;;11.85;8.75;;;;;;;;;;5012937;28;20634;-73
2023/04/08 10:02:57;;;;;;;13.98;9.35;;;;;;;;;;5040014;28;20467;-73
2023/04/08 10:05:44;;;;;;;14.52;9.07;;;;;;;;;;5015653;28;20026;-75
2023/04/08 10:08:30;;;;;;;13.85;8.93;;;;;;;;;;5016031;28;20196;-73
2023/04/08 10:11:15;;;;;;;12.82;8.45;;;;;;;;;;5015792;28;20036;-75
2023/04/08 10:14:01;;;;;;;11.90;8.73;;;;;;;;;;5043289;28;20029;-76
2023/04/08 10:16:47;;;;;;;14.20;9.55;;;;;;;;;;5014305;28;20029;-71
2023/04/08 10:19:41;;;;;;;13.32;8.60;;;;;;;;;;5038629;28;20025;-80
2023/04/08 10:22:33;;;;;;;11.65;8.30;;;;;;;;;;5026085;28;20045;-73
2023/04/08 10:25:18;;;;;;;12.27;9.13;;;;;;;;;;5023349;28;20033;-71
2023/04/08 10:28:09;;;;;;;12.07;8.55;;;;;;;;;;5028778;28;20025;-72
2023/04/08 10:30:55;;;;;;;12.70;8.90;;;;;;;;;;5028954;28;20104;-72
2023/04/08 10:33:40;;;;;;;11.57;8.30;;;;;;;;;;5027366;28;20044;-73
2023/04/08 10:36:26;;;;;;;12.43;9.20;;;;;;;;;;5028638;28;20064;-82
2023/04/08 10:39:12;;;;;;;12.35;8.55;;;;;;;;;;5028766;28;20080;-74
2023/04/08 10:42:01;;;;;;;12.10;8.40;;;;;;;;;;5028425;28;20048;-75
2023/04/08 10:44:46;;;;;;;14.70;9.25;;;;;;;;;;5028769;28;20599;-75
2023/04/08 10:47:32;;;;;;;12.55;8.32;;;;;;;;;;5009750;28;20441;-76
2023/04/08 10:50:18;;;;;;;13.93;8.82;;;;;;;;;;5034957;28;20511;-75
2023/04/08 10:53:03;;;;;;;14.35;8.68;;;;;;;;;;5024229;28;20105;-74
2023/04/08 10:55:49;;;;;;;11.85;8.43;;;;;;;;;;5028583;28;20033;-74
2023/04/08 10:58:35;;;;;;;13.63;8.32;;;;;;;;;;5042579;28;20029;-74
2023/04/08 11:01:20;;;;;;;12.35;8.40;;;;;;;;;;5014967;28;20025;-74
2023/04/08 11:04:17;;;;;;;12.85;9.38;;;;;;;;;;5009715;28;20033;-75
2023/04/08 11:07:04;;;;;;;14.05;8.05;;;;;;;;;;5009914;28;20049;-74
2023/04/08 11:09:49;;;;;;;11.98;8.25;;;;;;;;;;5013369;28;20036;-74
2023/04/08 11:12:36;;;;;;;12.20;8.88;;;;;;;;;;5014676;28;20017;-72
2023/04/08 11:15:22;;;;;;;10.80;7.80;;;;;;;;;;5028264;28;20034;-74
2023/04/08 11:18:08;;;;;;;10.68;7.95;;;;;;;;;;5014474;28;20053;-74
2023/04/08 11:20:53;;;;;;;12.95;8.65;;;;;;;;;;5013995;28;20021;-75
2023/04/08 11:23:38;;;;;;;16.80;10.70;;;;;;;;;;5027806;28;20505;-74
2023/04/08 11:26:24;;;;;;;12.32;8.10;;;;;;;;;;5003895;28;20044;-77
2023/04/08 11:29:12;;;;;;;12.20;8.57;;;;;;;;;;5014243;28;20049;-76
2023/04/08 11:31:58;;;;;;;12.65;8.45;;;;;;;;;;5019397;28;20029;-76
2023/04/08 11:34:43;;;;;;;13.27;8.52;;;;;;;;;;5013884;28;20534;-73
2023/04/08 11:37:48;;;;;;;11.18;8.43;;;;;;;;;;5027873;28;20021;-71
2023/04/08 11:40:33;;;;;;;12.70;8.60;;;;;;;;;;5016074;28;20022;-72
2023/04/08 11:43:19;;;;;;;13.88;8.70;;;;;;;;;;5027109;28;20042;-74
2023/04/08 11:46:08;;;;;;;13.05;8.80;;;;;;;;;;5013822;28;20021;-75
2023/04/08 11:48:57;;;;;;;14.50;9.82;;;;;;;;;;5020690;28;20036;-75
2023/04/08 11:51:58;;;;;;;11.05;8.68;;;;;;;;;;5007976;28;20579;-85
2023/04/08 11:54:43;;;;;;;12.05;8.50;;;;;;;;;;5016084;28;20041;-84
2023/04/08 11:57:29;;;;;;;13.52;9.23;;;;;;;;;;5015450;28;20061;-82
2023/04/08 12:00:14;;;;;;;12.75;8.27;;;;;;;;;;5013789;28;20545;-82
2023/04/08 12:02:59;;;;;;;12.88;9.25;;;;;;;;;;5027498;28;20064;-81
2023/04/08 12:05:45;;;;;;;14.63;8.98;;;;;;;;;;5027328;28;20025;-81
2023/04/08 12:08:30;;;;;;;13.13;8.60;;;;;;;;;;5027445;28;20088;-76
2023/04/08 12:11:15;;;;;;;12.80;8.75;;;;;;;;;;5010762;28;20104;-72
2023/04/08 12:14:01;;;;;;;13.15;8.70;;;;;;;;;;5040722;28;20021;-75
2023/04/08 12:16:46;;;;;;;12.15;8.13;;;;;;;;;;5011868;28;20036;-74
2023/04/08 12:19:31;;;;;;;15.18;9.15;;;;;;;;;;5027819;28;20519;-74
2023/04/08 12:22:16;;;;;;;13.93;9.07;;;;;;;;;;5027023;28;20034;-75
2023/04/08 12:25:02;;;;;;;11.18;8.13;;;;;;;;;;5023308;28;20026;-75
2023/04/08 12:27:48;;;;;;;11.35;8.52;;;;;;;;;;5027067;28;20700;-74
2023/04/08 12:30:33;;;;;;;12.60;8.57;;;;;;;;;;5020312;28;20034;-76
2023/04/08 12:33:18;;;;;;;11.55;8.43;;;;;;;;;;5024016;28;20021;-77
2023/04/08 12:36:04;;;;;;;12.43;8.27;;;;;;;;;;5012249;28;20083;-76
2023/04/08 12:38:49;;;;;;;12.43;9.07;;;;;;;;;;5020857;28;20033;-78
2023/04/08 12:41:34;;;;;;;15.13;9.48;;;;;;;;;;5026096;28;20017;-78
2023/04/08 12:44:20;;;;;;;12.70;8.85;;;;;;;;;;5017022;28;20113;-83
2023/04/08 12:47:05;;;;;;;13.35;9.23;;;;;;;;;;5029215;28;20416;-76
2023/04/08 12:49:50;;;;;;;13.85;8.68;;;;;;;;;;5010051;28;20112;-76
2023/04/08 12:52:36;;;;;;;14.52;8.43;;;;;;;;;;5029796;28;20449;-77
2023/04/08 12:55:23;;;;;;;12.10;8.25;;;;;;;;;;5016113;28;20036;-78
2023/04/08 12:58:09;;;;;;;12.30;8.50;;;;;;;;;;5016137;28;20033;-77
2023/04/08 13:00:54;;;;;;;11.23;8.30;;;;;;;;;;5004796;28;20121;-76
2023/04/08 13:03:41;;;;;;;12.02;8.88;;;;;;;;;;5007722;28;20521;-81
2023/04/08 13:06:26;;;;;;;12.80;8.40;;;;;;;;;;5038774;23;20034;-85
2023/04/08 13:09:13;;;;;;;11.70;8.52;;;;;;;;;;5059602;28;20107;-83
2023/04/08 13:11:59;;;;;;;13.77;7.90;;;;;;;;;;5051217;28;20768;-83
2023/04/08 13:14:45;;;;;;;11.20;7.85;;;;;;;;;;5059737;28;20511;-83
2023/04/08 13:17:30;;;;;;;13.25;9.00;;;;;;;;;;5055363;28;20356;-85
2023/04/08 13:20:15;;;;;;;11.20;8.30;;;;;;;;;;5044906;28;20094;-83
2023/04/08 13:23:00;;;;;;;11.85;8.25;;;;;;;;;;5060430;28;20531;-77
2023/04/08 13:25:46;;;;;;;11.48;8.18;;;;;;;;;;5064330;28;20036;-74
2023/04/08 13:28:31;;;;;;;12.32;8.15;;;;;;;;;;5046042;28;20040;-72
2023/04/08 13:31:16;;;;;;;12.45;8.40;;;;;;;;;;5054732;28;20031;-74
2023/04/08 13:34:02;;;;;;;14.05;9.38;;;;;;;;;;5064237;28;20090;-74
2023/04/08 13:36:47;;;;;;;12.43;8.77;;;;;;;;;;5040852;28;20471;-73
2023/04/08 13:39:32;;;;;;;11.55;8.65;;;;;;;;;;5067845;28;20548;-84
2023/04/08 13:42:17;;;;;;;11.38;8.18;;;;;;;;;;5050548;28;20041;-75
2023/04/08 13:45:03;;;;;;;11.13;8.45;;;;;;;;;;5066709;28;20066;-76
2023/04/08 13:47:48;;;;;;;11.82;8.10;;;;;;;;;;5069431;28;20035;-75
2023/04/08 13:50:33;;;;;;;11.50;8.45;;;;;;;;;;5066483;28;20060;-76
2023/04/08 13:53:18;;;;;;;11.00;7.82;;;;;;;;;;5057745;28;20423;-75
2023/04/08 13:56:04;;;;;;;12.73;7.85;;;;;;;;;;5059539;28;20081;-76
2023/04/08 13:58:49;;;;;;;11.98;8.07;;;;;;;;;;5069768;28;20246;-70
2023/04/08 14:01:34;;;;;;;12.80;8.45;;;;;;;;;;5044695;28;20064;-73
2023/04/08 14:04:20;;;;;;;13.50;7.97;;;;;;;;;;5050462;28;20468;-74
2023/04/08 14:07:05;;;;;;;10.85;8.23;;;;;;;;;;5065808;28;20212;-75
2023/04/08 14:09:51;;;;;;;12.73;8.82;;;;;;;;;;5059156;28;20059;-76
2023/04/08 14:12:36;;;;;;;11.57;8.63;;;;;;;;;;5069462;28;20035;-75
2023/04/08 14:15:21;;;;;;;13.18;8.55;;;;;;;;;;5069662;28;20032;-76
2023/04/08 14:18:06;;;;;;;10.98;7.78;;;;;;;;;;5038738;28;20087;-75
2023/04/08 14:20:51;;;;;;;11.93;8.50;;;;;;;;;;5044550;28;20025;-77
2023/04/08 14:23:37;;;;;;;17.75;8.73;;;;;;;;;;5060044;28;20037;-77
2023/04/08 14:26:22;;;;;;;12.98;8.25;;;;;;;;;;5062392;28;20464;-77
2023/04/08 14:29:07;;;;;;;13.73;8.30;;;;;;;;;;5048958;28;20266;-76
2023/04/08 14:31:53;;;;;;;13.20;8.95;;;;;;;;;;5069048;28;20024;-77
2023/04/08 14:34:38;;;;;;;12.63;8.18;;;;;;;;;;5067644;28;20135;-74
2023/04/08 14:37:23;;;;;;;11.35;7.60;;;;;;;;;;5064510;28;20115;-78
2023/04/08 14:40:09;;;;;;;15.07;10.18;;;;;;;;;;5068284;28;20099;-77
2023/04/08 14:42:54;;;;;;;11.70;8.20;;;;;;;;;;5035383;28;20029;-78
2023/04/08 14:45:40;;;;;;;12.45;8.68;;;;;;;;;;5057164;28;20074;-78
2023/04/08 14:48:25;;;;;;;12.52;8.55;;;;;;;;;;5059700;28;20029;-78
2023/04/08 14:51:10;;;;;;;13.25;9.40;;;;;;;;;;5066485;28;20069;-78
2023/04/08 14:53:55;;;;;;;12.15;8.68;;;;;;;;;;5040923;28;20053;-72
2023/04/08 14:56:41;;;;;;;13.43;8.18;;;;;;;;;;5068522;28;20028;-77
2023/04/08 14:59:26;;;;;;;12.75;8.40;;;;;;;;;;5047501;28;20115;-78
2023/04/08 15:02:11;;;;;;;12.45;8.20;;;;;;;;;;5065376;28;20032;-76
2023/04/08 15:04:56;;;;;;;11.25;7.63;;;;;;;;;;5067877;28;20033;-76
2023/04/08 15:07:42;;;;;;;10.65;7.90;;;;;;;;;;5061622;28;20043;-75
2023/04/08 15:10:27;;;;;;;11.98;7.82;;;;;;;;;;5058770;28;20032;-76
2023/04/08 15:13:12;;;;;;;13.23;8.10;;;;;;;;;;5067695;28;20059;-76
2023/04/08 15:15:57;;;;;;;11.55;7.93;;;;;;;;;;5047154;28;20108;-73
2023/04/08 15:18:43;;;;;;;9.60;6.28;;;;;;;;;;5067875;28;20036;-76
2023/04/08 15:21:28;;;;;;;9.73;6.40;;;;;;;;;;5057525;28;20036;-72
2023/04/08 15:24:13;;;;;;;9.35;5.97;;;;;;;;;;5058373;28;20059;-73
2023/04/08 15:26:59;;;;;;;8.35;6.18;;;;;;;;;;5045755;28;20036;-72
2023/04/08 15:29:45;;;;;;;8.23;5.72;;;;;;;;;;5048966;28;20021;-77
2023/04/08 15:32:31;;;;;;;9.82;5.50;;;;;;;;;;5063444;28;20017;-75
2023/04/08 15:35:16;;;;;;;7.82;5.75;;;;;;;;;;5061519;28;20134;-74
2023/04/08 15:38:01;;;;;;;10.85;5.97;;;;;;;;;;5062246;28;20029;-75
2023/04/08 15:40:46;;;;;;;7.85;5.30;;;;;;;;;;5067536;28;20070;-75
2023/04/08 15:43:32;;;;;;;9.07;5.57;;;;;;;;;;5050947;28;20028;-75
2023/04/08 15:46:17;;;;;;;8.43;5.75;;;;;;;;;;5057892;28;20079;-72
2023/04/08 15:49:03;;;;;;;7.90;5.07;;;;;;;;;;5058871;28;20035;-69
2023/04/08 15:51:50;;;;;;;11.65;4.72;;;;;;;;;;5060956;28;20032;-73
2023/04/08 15:54:35;;;;;;;9.05;5.40;;;;;;;;;;5040184;28;20425;-72
2023/04/08 15:57:25;;;;;;;7.13;4.95;;;;;;;;;;5055410;28;20032;-72
2023/04/08 16:00:11;;;;;;;8.75;5.18;;;;;;;;;;5045915;28;20068;-72
2023/04/08 16:02:56;;;;;;;8.65;5.03;;;;;;;;;;5062389;28;20541;-72
2023/04/08 16:05:41;;;;;;;8.38;4.75;;;;;;;;;;5066672;28;20169;-73
2023/04/08 16:08:27;;;;;;;7.80;4.20;;;;;;;;;;5058687;28;20028;-70
2023/04/08 16:11:13;;;;;;;8.25;4.28;;;;;;;;;;5064209;28;20032;-70
2023/04/08 16:13:58;;;;;;;7.72;4.05;;;;;;;;;;5064251;28;20127;-69
2023/04/08 16:16:43;;;;;;;7.63;4.05;;;;;;;;;;5066236;28;20033;-70
2023/04/08 16:19:28;;;;;;;7.80;4.60;;;;;;;;;;5066794;28;20128;-70
2023/04/08 16:22:14;;;;;;;7.57;3.95;;;;;;;;;;5064485;28;20530;-70